createdAt,value
2019-05-16T00:02:22.101Z,60.90
2019-05-16T00:04:52.215Z,61.10
2019-05-16T00:07:23.167Z,61.10
2019-05-16T00:09:54.517Z,61.20
2019-05-16T00:12:25.259Z,61.20
2019-05-16T00:14:58.078Z,61.40
2019-05-16T00:17:28.640Z,61.30
2019-05-16T00:19:59.519Z,61.40
2019-05-16T00:22:29.572Z,61.20
2019-05-16T00:24:59.970Z,61.20
2019-05-16T00:27:30.916Z,61.40
2019-05-16T00:30:01.856Z,61.60
2019-05-16T00:32:33.977Z,61.50
2019-05-16T00:35:09.332Z,61.60
2019-05-16T00:37:40.826Z,61.60
2019-05-16T00:40:13.203Z,61.80
2019-05-16T00:42:43.940Z,62.00
2019-05-16T00:45:15.018Z,62.10
2019-05-16T00:47:48.037Z,62.60
2019-05-16T00:50:18.476Z,62.40
2019-05-16T00:52:50.384Z,62.80
2019-05-16T00:55:21.056Z,63.10
2019-05-16T00:57:52.891Z,63.10
2019-05-16T01:00:54.162Z,63.10
2019-05-16T01:03:25.694Z,63.10
2019-05-16T01:05:58.265Z,63.10
2019-05-16T01:08:29.421Z,63.10
2019-05-16T01:11:00.374Z,63.20
2019-05-16T01:13:31.720Z,63.20
2019-05-16T01:16:02.887Z,63.50
2019-05-16T01:18:33.352Z,63.90
2019-05-16T01:21:04.542Z,65.10
2019-05-16T01:23:35.286Z,65.70
2019-05-16T01:26:07.962Z,66.20
2019-05-16T01:28:38.405Z,66.70
2019-05-16T01:31:09.286Z,67.20
2019-05-16T01:33:40.284Z,67.50
2019-05-16T01:36:11.240Z,67.80
2019-05-16T01:38:41.648Z,67.90
2019-05-16T01:41:12.503Z,67.80
2019-05-16T01:43:43.390Z,67.70
2019-05-16T01:46:14.399Z,67.60
2019-05-16T01:48:45.128Z,67.30
2019-05-16T01:51:15.656Z,67.40
2019-05-16T01:53:48.642Z,67.20
2019-05-16T01:56:19.121Z,67.40
2019-05-16T01:58:49.900Z,67.20
2019-05-16T02:01:21.276Z,67.20
2019-05-16T02:03:53.857Z,67.40
2019-05-16T02:06:24.321Z,67.50
2019-05-16T02:08:55.291Z,67.60
2019-05-16T02:11:28.375Z,67.70
2019-05-16T02:13:58.659Z,67.80
2019-05-16T02:16:29.816Z,68.10
2019-05-16T02:19:01.153Z,68.00
2019-05-16T02:21:31.493Z,68.10
2019-05-16T02:24:02.254Z,67.80
2019-05-16T02:26:32.973Z,68.20
2019-05-16T02:29:03.292Z,68.50
2019-05-16T02:31:33.824Z,68.70
2019-05-16T02:34:05.117Z,68.80
2019-05-16T02:36:36.320Z,69.00
2019-05-16T02:39:11.281Z,69.10
2019-05-16T02:41:45.625Z,69.00
2019-05-16T02:44:13.256Z,69.20
2019-05-16T02:46:44.403Z,69.20
2019-05-16T02:49:14.865Z,69.30
2019-05-16T02:51:45.262Z,69.30
2019-05-16T02:54:15.351Z,69.50
2019-05-16T02:56:45.511Z,69.60
2019-05-16T02:59:16.246Z,69.40
2019-05-16T03:01:47.192Z,69.50
2019-05-16T03:04:21.123Z,69.50
2019-05-16T03:06:51.346Z,69.70
2019-05-16T03:09:23.652Z,69.90
2019-05-16T03:11:55.873Z,70.20
2019-05-16T03:14:27.193Z,70.30
2019-05-16T03:17:01.097Z,70.60
2019-05-16T03:19:36.422Z,71.00
2019-05-16T03:22:11.446Z,71.30
2019-05-16T03:24:42.276Z,71.60
2019-05-16T03:27:13.808Z,71.60
2019-05-16T03:29:44.377Z,71.90
2019-05-16T03:32:15.091Z,72.10
2019-05-16T03:34:46.457Z,72.10
2019-05-16T03:37:17.063Z,72.10
2019-05-16T03:39:51.262Z,72.10
2019-05-16T03:42:20.698Z,72.10
2019-05-16T03:44:51.685Z,72.10
2019-05-16T03:47:22.801Z,72.30
2019-05-16T03:49:54.164Z,72.50
2019-05-16T03:52:24.891Z,72.50
2019-05-16T03:54:55.626Z,72.50
2019-05-16T03:57:26.513Z,72.60
2019-05-16T03:59:57.109Z,72.70
2019-05-16T04:02:30.676Z,72.90
2019-05-16T04:05:02.065Z,73.30
2019-05-16T04:07:32.073Z,74.30
2019-05-16T04:10:02.423Z,73.60
2019-05-16T04:12:33.598Z,73.70
2019-05-16T04:15:05.039Z,73.70
2019-05-16T04:17:36.835Z,73.70
2019-05-16T04:20:11.638Z,73.80
2019-05-16T04:22:41.187Z,73.70
2019-05-16T04:25:13.305Z,73.60
2019-05-16T04:27:43.627Z,73.70
2019-05-16T04:30:13.792Z,73.30
2019-05-16T04:32:44.896Z,73.50
2019-05-16T04:35:14.724Z,73.30
2019-05-16T04:37:47.194Z,73.40
2019-05-16T04:40:18.138Z,73.60
2019-05-16T04:42:51.053Z,73.60
2019-05-16T04:45:22.085Z,73.70
2019-05-16T04:47:53.410Z,73.70
2019-05-16T04:50:24.371Z,73.70
2019-05-16T04:52:55.109Z,73.70
2019-05-16T04:55:25.237Z,73.90
2019-05-16T04:57:56.178Z,73.50
2019-05-16T05:00:31.610Z,73.00
2019-05-16T05:03:01.364Z,72.80
2019-05-16T05:05:33.357Z,72.50
2019-05-16T05:08:04.417Z,72.30
2019-05-16T05:10:35.345Z,71.80
2019-05-16T05:13:05.211Z,72.00
2019-05-16T05:15:36.269Z,71.70
2019-05-16T05:18:06.565Z,71.60
2019-05-16T05:20:37.739Z,71.60
2019-05-16T05:23:09.853Z,71.40
2019-05-16T05:25:41.002Z,71.50
2019-05-16T05:28:13.598Z,71.50
2019-05-16T05:30:44.787Z,71.60
2019-05-16T05:33:17.257Z,71.40
2019-05-16T05:35:50.787Z,71.30
2019-05-16T05:38:21.816Z,71.10
2019-05-16T05:40:52.679Z,70.50
2019-05-16T05:43:24.834Z,70.20
2019-05-16T05:45:55.777Z,69.60
2019-05-16T05:48:26.047Z,69.60
2019-05-16T05:50:56.581Z,69.30
2019-05-16T05:53:27.102Z,70.20
2019-05-16T05:56:00.492Z,70.50
2019-05-16T05:58:30.813Z,70.60
2019-05-16T06:01:02.043Z,70.00
2019-05-16T06:03:33.012Z,69.70
2019-05-16T06:06:04.573Z,70.00
2019-05-16T06:08:36.103Z,69.00
2019-05-16T06:11:06.435Z,69.30
2019-05-16T06:13:37.098Z,69.10
2019-05-16T06:16:07.976Z,69.10
2019-05-16T06:18:39.666Z,68.40
2019-05-16T06:21:11.578Z,67.60
2019-05-16T06:23:43.412Z,67.10
2019-05-16T06:26:15.383Z,66.80
2019-05-16T06:28:50.635Z,66.40
2019-05-16T06:31:22.308Z,66.60
2019-05-16T06:33:53.119Z,66.50
2019-05-16T06:36:24.004Z,65.60
2019-05-16T06:38:54.389Z,65.50
2019-05-16T06:41:25.125Z,64.30
2019-05-16T06:43:56.273Z,64.00
2019-05-16T06:46:26.750Z,63.90
2019-05-16T06:48:59.662Z,63.90
2019-05-16T06:51:30.661Z,63.60
2019-05-16T06:54:01.985Z,64.20
2019-05-16T06:56:33.044Z,63.80
2019-05-16T06:59:03.701Z,63.40
2019-05-16T07:01:34.717Z,61.90
2019-05-16T07:04:05.593Z,61.50
2019-05-16T07:06:53.877Z,60.70
2019-05-16T07:09:10.514Z,59.90
2019-05-16T07:11:41.525Z,60.00
2019-05-16T07:14:12.436Z,58.60
2019-05-16T07:16:43.869Z,57.20
2019-05-16T07:19:14.186Z,57.30
2019-05-16T07:21:44.727Z,56.00
2019-05-16T07:24:17.026Z,56.40
2019-05-16T07:26:50.115Z,56.90
2019-05-16T07:29:21.694Z,57.40
2019-05-16T07:31:52.804Z,57.60
2019-05-16T07:34:23.357Z,56.90
2019-05-16T07:36:53.946Z,57.10
2019-05-16T07:39:24.116Z,57.70
2019-05-16T07:41:55.342Z,56.60
2019-05-16T07:44:26.080Z,56.10
2019-05-16T07:46:56.611Z,56.80
2019-05-16T07:49:27.432Z,57.10
2019-05-16T07:51:57.186Z,56.90
2019-05-16T07:54:34.038Z,56.50
2019-05-16T07:57:11.524Z,55.90
2019-05-16T07:59:32.152Z,55.70
2019-05-16T08:02:03.088Z,58.10
2019-05-16T08:04:33.626Z,61.90
2019-05-16T08:07:05.827Z,63.10
2019-05-16T08:09:37.151Z,64.80
2019-05-16T08:12:10.404Z,66.50
2019-05-16T08:14:40.970Z,64.50
2019-05-16T08:17:11.710Z,67.00
2019-05-16T08:19:42.589Z,66.10
2019-05-16T08:22:13.921Z,65.70
2019-05-16T08:24:43.963Z,63.70
2019-05-16T08:27:14.560Z,61.80
2019-05-16T08:29:45.847Z,61.70
2019-05-16T08:32:17.282Z,60.10
2019-05-16T08:34:51.229Z,59.40
2019-05-16T08:39:53.597Z,56.00
2019-05-16T08:42:24.540Z,55.90
2019-05-16T08:44:55.273Z,57.50
2019-05-16T08:47:26.231Z,57.70
2019-05-16T08:49:56.959Z,56.80
2019-05-16T08:50:05.959Z,59.40
2019-05-16T08:52:31.241Z,56.20
2019-05-16T08:57:33.536Z,55.90
2019-05-16T09:00:06.226Z,54.00
2019-05-16T09:02:37.286Z,53.30
2019-05-16T09:05:13.140Z,51.50
2019-05-16T09:07:47.511Z,53.10
2019-05-16T09:10:49.843Z,53.30
2019-05-16T09:12:52.241Z,53.80
2019-05-16T09:15:23.187Z,51.80
2019-05-16T09:17:53.725Z,50.60
2019-05-16T09:18:30.747Z,56.30
2019-05-16T09:20:24.259Z,50.60
2019-05-16T09:22:54.319Z,51.30
2019-05-16T09:25:27.511Z,49.90
2019-05-16T09:27:58.716Z,46.70
2019-05-16T09:30:30.070Z,49.00
2019-05-16T09:33:01.216Z,49.70
2019-05-16T09:35:31.657Z,48.60
2019-05-16T09:38:02.699Z,47.40
2019-05-16T09:40:33.158Z,47.10
2019-05-16T09:43:03.826Z,48.40
2019-05-16T09:45:35.007Z,48.40
2019-05-16T09:48:08.134Z,47.60
2019-05-16T09:50:40.892Z,46.50
2019-05-16T09:53:11.237Z,46.80
2019-05-16T09:55:41.685Z,47.30
2019-05-16T09:58:17.706Z,45.10
2019-05-16T10:00:47.606Z,45.40
2019-05-16T10:03:22.579Z,47.20
2019-05-16T10:05:51.940Z,45.90
2019-05-16T10:08:22.621Z,44.70
2019-05-16T10:10:52.951Z,43.10
2019-05-16T10:13:23.424Z,42.80
2019-05-16T10:15:54.022Z,41.90
2019-05-16T10:18:27.517Z,41.50
2019-05-16T10:20:59.227Z,40.90
2019-05-16T10:23:29.308Z,39.30
2019-05-16T10:25:59.886Z,38.70
2019-05-16T10:28:30.780Z,39.30
2019-05-16T10:31:01.525Z,38.40
2019-05-16T10:33:33.099Z,38.60
2019-05-16T10:36:03.606Z,38.40
2019-05-16T10:38:37.265Z,38.50
2019-05-16T10:41:07.427Z,39.40
2019-05-16T10:43:39.191Z,40.60
2019-05-16T10:46:10.866Z,41.00
2019-05-16T10:48:41.368Z,40.10
2019-05-16T10:51:12.067Z,39.30
2019-05-16T10:54:04.494Z,40.10
2019-05-16T10:56:15.086Z,40.10
2019-05-16T10:59:05.011Z,39.10
2019-05-16T11:01:26.571Z,39.10
2019-05-16T11:03:50.476Z,38.40
2019-05-16T11:06:25.703Z,37.90
2019-05-16T11:08:57.068Z,37.90
2019-05-16T11:11:27.492Z,36.90
2019-05-16T11:13:59.025Z,36.50
2019-05-16T11:16:29.964Z,36.90
2019-05-16T11:19:14.375Z,37.60
2019-05-16T11:21:32.483Z,39.10
2019-05-16T11:24:03.269Z,39.00
2019-05-16T11:26:36.649Z,40.00
2019-05-16T11:29:07.753Z,40.60
2019-05-16T11:31:38.906Z,41.20
2019-05-16T11:34:09.651Z,43.10
2019-05-16T11:36:40.172Z,44.30
2019-05-16T11:39:10.533Z,44.40
2019-05-16T11:41:41.444Z,43.90
2019-05-16T11:44:11.852Z,44.90
2019-05-16T11:46:43.132Z,44.70
2019-05-16T11:49:16.644Z,44.40
2019-05-16T11:51:47.687Z,45.90
2019-05-16T11:54:18.566Z,46.30
2019-05-16T11:56:49.768Z,46.10
2019-05-16T11:59:20.725Z,45.90
2019-05-16T12:01:51.665Z,46.30
2019-05-16T12:04:22.329Z,45.60
2019-05-16T12:06:53.549Z,45.20
2019-05-16T12:09:32.174Z,44.60
2019-05-16T12:12:04.085Z,45.10
2019-05-16T12:14:29.147Z,45.00
2019-05-16T12:16:59.987Z,44.50
2019-05-16T12:19:34.055Z,43.60
2019-05-16T12:22:02.889Z,42.30
2019-05-16T12:24:38.792Z,41.20
2019-05-16T12:27:08.227Z,41.10
2019-05-16T12:29:39.203Z,40.90
2019-05-16T12:32:09.943Z,41.60
2019-05-16T12:34:46.348Z,42.20
2019-05-16T12:37:17.371Z,42.40
2019-05-16T12:39:48.312Z,42.80
2019-05-16T12:42:18.977Z,43.90
2019-05-16T12:44:50.017Z,44.20
2019-05-16T12:47:20.586Z,44.00
2019-05-16T12:49:50.925Z,44.30
2019-05-16T12:52:21.171Z,43.90
2019-05-16T12:54:51.892Z,44.50
2019-05-16T12:57:27.726Z,44.40
2019-05-16T12:59:57.047Z,43.50
2019-05-16T13:02:27.736Z,40.80
2019-05-16T13:04:57.803Z,40.30
2019-05-16T13:07:28.889Z,39.80
2019-05-16T13:09:59.635Z,39.70
2019-05-16T13:12:30.412Z,40.10
2019-05-16T13:15:01.016Z,39.60
2019-05-16T13:17:32.051Z,39.20
2019-05-16T13:20:02.795Z,38.70
2019-05-16T13:22:33.293Z,38.50
2019-05-16T13:25:07.369Z,38.10
2019-05-16T13:27:39.124Z,38.00
2019-05-16T13:30:12.784Z,38.50
2019-05-16T13:32:43.909Z,38.90
2019-05-16T13:35:16.932Z,38.30
2019-05-16T13:37:47.788Z,39.30
2019-05-16T13:40:18.664Z,40.30
2019-05-16T13:42:49.669Z,41.60
2019-05-16T13:45:21.030Z,40.40
2019-05-16T13:47:51.790Z,39.40
2019-05-16T13:50:21.836Z,39.40
2019-05-16T13:52:51.958Z,40.20
2019-05-16T13:55:23.780Z,40.60
2019-05-16T13:57:53.898Z,40.70
2019-05-16T14:00:27.737Z,42.30
2019-05-16T14:02:56.893Z,43.90
2019-05-16T14:05:27.557Z,44.70
2019-05-16T14:07:58.002Z,44.50
2019-05-16T14:10:29.837Z,44.60
2019-05-16T14:13:01.068Z,45.20
2019-05-16T14:15:31.606Z,45.40
2019-05-16T14:18:02.885Z,46.20
2019-05-16T14:20:33.567Z,47.70
2019-05-16T14:23:03.864Z,47.90
2019-05-16T14:25:37.589Z,47.90
2019-05-16T14:28:08.709Z,48.50
2019-05-16T14:30:39.851Z,48.80
2019-05-16T14:33:13.723Z,49.70
2019-05-16T14:35:43.172Z,49.10
2019-05-16T14:38:14.111Z,49.60
2019-05-16T14:40:49.851Z,49.30
2019-05-16T14:43:17.281Z,50.40
2019-05-16T14:45:49.364Z,50.40
2019-05-16T14:48:20.201Z,52.40
2019-05-16T14:50:51.271Z,52.80
2019-05-16T14:53:22.177Z,53.60
2019-05-16T14:55:52.303Z,53.90
2019-05-16T14:58:23.177Z,54.00
2019-05-16T15:00:57.323Z,54.40
2019-05-16T15:03:27.258Z,54.20
2019-05-16T15:05:59.086Z,55.20
2019-05-16T15:08:30.350Z,56.00
2019-05-16T15:11:00.739Z,56.40
2019-05-16T15:13:30.797Z,57.00
2019-05-16T15:16:00.947Z,57.80
2019-05-16T15:18:32.071Z,58.10
2019-05-16T15:21:03.018Z,58.50
2019-05-16T15:23:33.436Z,58.70
2019-05-16T15:26:08.971Z,58.50
2019-05-16T15:28:37.776Z,59.00
2019-05-16T15:31:09.475Z,59.70
2019-05-16T15:33:39.820Z,60.00
2019-05-16T15:36:10.887Z,60.40
2019-05-16T15:38:41.667Z,61.00
2019-05-16T15:41:12.613Z,61.50
2019-05-16T15:43:43.385Z,61.00
2019-05-16T15:46:17.089Z,61.20
2019-05-16T15:48:48.898Z,62.50
2019-05-16T15:51:21.715Z,62.30
2019-05-16T15:53:52.579Z,62.90
2019-05-16T15:56:26.974Z,62.90
2019-05-16T15:58:57.823Z,63.10
2019-05-16T16:01:27.946Z,63.90
2019-05-16T16:03:58.890Z,63.20
2019-05-16T16:06:29.774Z,63.70
2019-05-16T16:09:00.775Z,64.20
2019-05-16T16:11:32.763Z,65.20
2019-05-16T16:14:06.807Z,66.30
2019-05-16T16:16:37.095Z,66.90
2019-05-16T16:19:08.044Z,67.80
2019-05-16T16:21:38.918Z,67.50
2019-05-16T16:24:10.125Z,67.90
2019-05-16T16:26:41.020Z,68.40
2019-05-16T16:29:12.224Z,69.10
2019-05-16T16:31:43.366Z,69.60
2019-05-16T16:34:14.034Z,70.00
2019-05-16T16:36:47.392Z,70.20
2019-05-16T16:39:18.035Z,70.80
2019-05-16T16:41:48.942Z,71.20
2019-05-16T16:44:20.003Z,72.10
2019-05-16T16:46:51.893Z,72.20
2019-05-16T16:49:23.035Z,72.60
2019-05-16T16:51:53.782Z,73.60
2019-05-16T16:54:23.773Z,73.80
2019-05-16T16:56:54.474Z,74.20
2019-05-16T16:59:27.974Z,74.10
2019-05-16T17:01:57.674Z,74.70
2019-05-16T17:04:29.239Z,75.20
2019-05-16T17:07:00.261Z,75.80
2019-05-16T17:09:31.412Z,75.80
2019-05-16T17:12:01.978Z,75.30
2019-05-16T17:14:33.086Z,75.40
2019-05-16T17:17:03.821Z,76.30
2019-05-16T17:19:36.594Z,76.20
2019-05-16T17:22:17.152Z,76.50
2019-05-16T17:24:38.838Z,77.10
2019-05-16T17:27:09.300Z,77.40
2019-05-16T17:29:40.159Z,77.50
2019-05-16T17:32:10.806Z,77.00
2019-05-16T17:34:41.751Z,77.70
2019-05-16T17:37:12.802Z,77.70
2019-05-16T17:39:43.778Z,77.80
2019-05-16T17:42:16.437Z,78.30
2019-05-16T17:44:47.389Z,78.50
2019-05-16T17:47:18.410Z,78.50
2019-05-16T17:49:49.007Z,79.00
2019-05-16T17:52:19.278Z,79.80
2019-05-16T17:54:53.151Z,80.30
2019-05-16T17:57:23.629Z,80.90
2019-05-16T17:59:54.406Z,81.80
2019-05-16T18:02:26.734Z,82.10
2019-05-16T18:04:57.300Z,82.70
2019-05-16T18:07:28.418Z,83.50
2019-05-16T18:09:59.573Z,83.70
2019-05-16T18:12:30.240Z,84.70
2019-05-16T18:15:01.275Z,85.30
2019-05-16T18:17:31.816Z,84.90
2019-05-16T18:20:02.937Z,86.30
2019-05-16T18:22:33.266Z,86.20
2019-05-16T18:25:04.207Z,86.90
2019-05-16T18:27:37.408Z,87.30
2019-05-16T18:30:07.444Z,87.80
2019-05-16T18:32:38.696Z,88.50
2019-05-16T18:35:16.851Z,89.30
2019-05-16T18:37:47.521Z,88.50
2019-05-16T18:40:19.325Z,88.90
2019-05-16T18:42:50.860Z,89.30
2019-05-16T18:45:21.785Z,89.70
2019-05-16T18:47:52.945Z,90.00
2019-05-16T18:50:23.721Z,90.20
2019-05-16T18:52:56.961Z,90.50
2019-05-16T18:55:27.803Z,90.70
2019-05-16T18:57:59.117Z,90.80
2019-05-16T19:00:31.321Z,90.60
2019-05-16T19:03:02.285Z,90.90
2019-05-16T19:05:34.454Z,91.10
2019-05-16T19:08:07.306Z,91.10
2019-05-16T19:10:39.249Z,91.40
2019-05-16T19:13:12.507Z,91.70
2019-05-16T19:15:43.349Z,92.10
2019-05-16T19:18:16.931Z,92.30
2019-05-16T19:20:48.934Z,92.20
2019-05-16T19:23:20.079Z,92.00
2019-05-16T19:25:51.569Z,92.30
2019-05-16T19:28:21.963Z,92.40
2019-05-16T19:30:52.696Z,92.60
2019-05-16T19:33:23.849Z,92.90
2019-05-16T19:35:56.567Z,93.00
2019-05-16T19:38:29.279Z,93.40
2019-05-16T19:40:59.763Z,93.60
2019-05-16T19:43:31.103Z,94.00
2019-05-16T19:46:01.989Z,94.10
2019-05-16T19:48:32.525Z,94.30
2019-05-16T19:51:03.316Z,94.50
2019-05-16T19:53:33.719Z,94.80
2019-05-16T19:56:04.309Z,94.90
2019-05-16T19:58:37.084Z,95.00
2019-05-16T20:01:07.705Z,95.00
2019-05-16T20:03:38.601Z,95.20
2019-05-16T20:06:09.117Z,95.50
2019-05-16T20:08:40.530Z,95.60
2019-05-16T20:11:11.481Z,95.70
2019-05-16T20:13:41.949Z,96.50
2019-05-16T20:16:12.755Z,96.40
2019-05-16T20:18:43.905Z,96.70
2019-05-16T20:21:16.426Z,97.00
2019-05-16T20:23:47.253Z,97.30
2019-05-16T20:26:18.777Z,97.50
2019-05-16T20:28:49.423Z,98.00
2019-05-16T20:31:20.661Z,98.20
2019-05-16T20:33:51.554Z,98.40
2019-05-16T20:36:22.073Z,98.70
2019-05-16T20:38:55.434Z,99.00
2019-05-16T20:41:27.336Z,99.30
2019-05-16T20:43:58.864Z,99.60
2019-05-16T20:46:29.598Z,99.90
2019-05-16T20:49:00.332Z,99.90
2019-05-16T20:51:31.481Z,99.90
2019-05-16T20:54:02.633Z,99.90
2019-05-16T20:56:33.571Z,99.90
2019-05-16T20:59:07.022Z,99.90
2019-05-16T21:01:38.124Z,99.90
2019-05-16T21:04:09.256Z,99.90
2019-05-16T21:06:40.153Z,99.90
2019-05-16T21:09:10.888Z,99.90
2019-05-16T21:11:42.069Z,99.90
2019-05-16T21:14:13.253Z,99.90
2019-05-16T21:16:43.580Z,99.90
2019-05-16T21:19:16.304Z,99.90
2019-05-16T21:21:47.176Z,99.90
2019-05-16T21:24:18.652Z,99.90
2019-05-16T21:26:50.007Z,99.90
2019-05-16T21:29:21.784Z,99.90
2019-05-16T21:31:52.306Z,99.90
2019-05-16T21:34:22.799Z,99.90
2019-05-16T21:36:53.172Z,99.90
2019-05-16T21:39:26.400Z,99.90
2019-05-16T21:41:59.244Z,99.90
2019-05-16T21:44:29.142Z,99.90
2019-05-16T21:46:59.755Z,99.90
2019-05-16T21:49:30.696Z,99.90
2019-05-16T21:52:02.310Z,99.90
2019-05-16T21:54:33.669Z,99.90
2019-05-16T21:57:04.412Z,99.90
2019-05-16T21:59:37.041Z,99.90
2019-05-16T22:02:09.372Z,99.90
2019-05-16T22:04:41.346Z,99.90
2019-05-16T22:07:13.094Z,99.90
2019-05-16T22:09:46.617Z,99.90
2019-05-16T22:12:18.156Z,99.90
2019-05-16T22:14:53.499Z,99.90
2019-05-16T22:17:24.253Z,99.90
2019-05-16T22:19:56.388Z,99.90
2019-05-16T22:22:29.813Z,99.90
2019-05-16T22:24:59.273Z,99.90
2019-05-16T22:27:30.275Z,99.90
2019-05-16T22:30:01.527Z,99.90
2019-05-16T22:32:32.503Z,99.90
2019-05-16T22:35:03.099Z,99.90
2019-05-16T22:37:46.864Z,99.90
2019-05-16T22:40:06.824Z,99.90
2019-05-16T22:42:38.795Z,99.90
2019-05-16T22:45:12.541Z,99.90
2019-05-16T22:47:43.758Z,99.90
2019-05-16T22:50:17.590Z,99.90
2019-05-16T22:52:48.301Z,99.90
2019-05-16T22:55:20.931Z,99.90
2019-05-16T22:57:52.051Z,99.90
2019-05-16T23:00:28.095Z,99.90
2019-05-16T23:02:58.631Z,99.90
2019-05-16T23:05:29.567Z,99.90
2019-05-16T23:08:05.919Z,99.90
2019-05-16T23:10:33.911Z,99.90
2019-05-16T23:13:06.488Z,99.90
2019-05-16T23:15:37.854Z,99.90
2019-05-16T23:18:08.621Z,99.90
2019-05-16T23:20:39.323Z,99.90
2019-05-16T23:23:09.857Z,99.90
2019-05-16T23:25:40.987Z,99.90
2019-05-16T23:28:12.122Z,99.90
2019-05-16T23:30:42.636Z,99.90
2019-05-16T23:33:13.433Z,99.90
2019-05-16T23:35:46.879Z,99.90
2019-05-16T23:38:20.012Z,99.90
2019-05-16T23:40:49.739Z,99.90
2019-05-16T23:43:20.067Z,99.90
2019-05-16T23:45:51.418Z,99.90
2019-05-16T23:48:21.959Z,99.90
2019-05-16T23:50:52.898Z,99.90
2019-05-16T23:53:24.051Z,99.90
2019-05-16T23:55:56.719Z,99.90
2019-05-16T23:58:27.574Z,99.90
